createdAt,value
2022-12-18T00:01:42.400Z,-8.81
2022-12-18T00:04:19.854Z,-8.86
2022-12-18T00:06:46.628Z,-8.98
2022-12-18T00:09:15.025Z,-8.78
2022-12-18T00:11:41.799Z,-8.94
2022-12-18T00:14:09.777Z,-8.74
2022-12-18T00:16:37.904Z,-8.69
2022-12-18T00:19:05.524Z,-8.71
2022-12-18T00:21:33.309Z,-8.48
2022-12-18T00:24:01.045Z,-8.57
2022-12-18T00:26:33.769Z,-8.46
2022-12-18T00:29:12.120Z,-8.62
2022-12-18T00:31:39.176Z,-8.54
2022-12-18T00:34:05.802Z,-8.92
2022-12-18T00:36:35.126Z,-8.87
2022-12-18T00:39:04.157Z,-8.85
2022-12-18T00:41:49.206Z,-8.67
2022-12-18T00:44:18.261Z,-8.47
2022-12-18T00:46:46.948Z,-8.70
2022-12-18T00:49:14.280Z,-8.58
2022-12-18T00:51:41.075Z,-8.58
2022-12-18T00:54:07.870Z,-8.70
2022-12-18T00:56:39.399Z,-8.40
2022-12-18T00:59:12.298Z,-8.33
2022-12-18T01:01:39.384Z,-8.56
2022-12-18T01:04:06.268Z,-8.25
2022-12-18T01:06:32.829Z,-8.03
2022-12-18T01:08:59.547Z,-8.12
2022-12-18T01:11:26.999Z,-8.04
2022-12-18T01:13:55.087Z,-7.98
2022-12-18T01:16:23.795Z,-7.86
2022-12-18T01:18:54.576Z,-8.09
2022-12-18T01:21:22.290Z,-8.03
2022-12-18T01:23:53.307Z,-8.11
2022-12-18T01:26:20.409Z,-8.40
2022-12-18T01:28:46.941Z,-8.28
2022-12-18T01:31:22.560Z,-8.13
2022-12-18T01:33:49.856Z,-8.18
2022-12-18T01:36:31.037Z,-8.21
2022-12-18T01:38:59.939Z,-8.26
2022-12-18T01:41:49.085Z,-7.99
2022-12-18T01:44:52.645Z,-8.08
2022-12-18T01:47:53.415Z,-7.74
2022-12-18T01:50:35.018Z,-7.86
2022-12-18T01:53:13.668Z,-7.55
2022-12-18T01:55:49.466Z,-7.44
2022-12-18T01:58:17.129Z,-7.49
2022-12-18T02:00:44.185Z,-7.65
2022-12-18T02:03:12.105Z,-7.67
2022-12-18T02:06:12.329Z,-7.54
2022-12-18T02:08:52.705Z,-7.52
2022-12-18T02:11:27.824Z,-7.70
2022-12-18T02:14:12.355Z,-7.60
2022-12-18T02:17:02.093Z,-7.32
2022-12-18T02:19:59.176Z,-7.27
2022-12-18T02:22:28.870Z,-7.35
2022-12-18T02:25:14.144Z,-7.40
2022-12-18T02:27:42.994Z,-7.29
2022-12-18T02:30:10.472Z,-7.13
2022-12-18T02:32:45.835Z,-7.45
2022-12-18T02:35:28.405Z,-7.06
2022-12-18T02:37:59.057Z,-7.30
2022-12-18T02:40:30.183Z,-7.06
2022-12-18T02:43:10.514Z,-6.96
2022-12-18T02:45:48.369Z,-7.03
2022-12-18T02:48:24.854Z,-7.07
2022-12-18T02:51:11.942Z,-6.81
2022-12-18T02:53:46.149Z,-7.04
2022-12-18T02:56:18.485Z,-6.97
2022-12-18T02:59:07.295Z,-6.90
2022-12-18T03:02:19.144Z,-7.26
2022-12-18T03:04:58.191Z,-7.13
2022-12-18T03:07:36.182Z,-6.93
2022-12-18T03:10:07.920Z,-6.91
2022-12-18T03:12:44.419Z,-6.81
2022-12-18T03:15:17.931Z,-6.69
2022-12-18T03:18:05.942Z,-6.74
2022-12-18T03:20:35.242Z,-7.14
2022-12-18T03:23:18.996Z,-6.84
2022-12-18T03:25:51.869Z,-6.64
2022-12-18T03:28:22.625Z,-6.99
2022-12-18T03:31:00.050Z,-6.74
2022-12-18T03:33:41.212Z,-6.85
2022-12-18T03:36:08.451Z,-6.74
2022-12-18T03:38:35.192Z,-6.89
2022-12-18T03:41:04.817Z,-6.78
2022-12-18T03:43:46.775Z,-6.70
2022-12-18T03:46:28.348Z,-6.75
2022-12-18T03:49:15.781Z,-6.83
2022-12-18T03:52:06.083Z,-6.66
2022-12-18T03:54:34.894Z,-6.53
2022-12-18T03:57:19.167Z,-6.55
2022-12-18T03:59:50.502Z,-6.53
2022-12-18T04:02:19.908Z,-6.43
2022-12-18T04:04:51.771Z,-6.54
2022-12-18T04:07:19.458Z,-6.57
2022-12-18T04:09:47.442Z,-6.48
2022-12-18T04:12:14.850Z,-6.52
2022-12-18T04:14:41.633Z,-6.52
2022-12-18T04:17:09.584Z,-6.20
2022-12-18T04:19:37.027Z,-6.38
2022-12-18T04:22:04.074Z,-6.25
2022-12-18T04:24:36.876Z,-6.15
2022-12-18T04:27:14.239Z,-6.31
2022-12-18T04:29:44.936Z,-6.15
2022-12-18T04:32:11.651Z,-6.12
2022-12-18T04:34:40.123Z,-6.23
2022-12-18T04:37:07.315Z,-6.45
2022-12-18T04:39:33.995Z,-6.27
2022-12-18T04:42:06.606Z,-6.23
2022-12-18T04:44:34.265Z,-6.29
2022-12-18T04:47:00.916Z,-6.08
2022-12-18T04:49:27.429Z,-6.25
2022-12-18T04:51:54.251Z,-6.37
2022-12-18T04:54:21.149Z,-6.00
2022-12-18T04:56:47.961Z,-6.13
2022-12-18T04:59:14.584Z,-6.26
2022-12-18T05:01:41.281Z,-6.49
2022-12-18T05:04:07.919Z,-6.28
2022-12-18T05:06:34.778Z,-6.13
2022-12-18T05:09:01.329Z,-6.27
2022-12-18T05:11:28.228Z,-6.15
2022-12-18T05:13:54.727Z,-6.06
2022-12-18T05:16:22.544Z,-6.10
2022-12-18T05:18:49.111Z,-6.12
2022-12-18T05:21:15.647Z,-6.07
2022-12-18T05:23:42.769Z,-6.03
2022-12-18T05:26:15.049Z,-6.19
2022-12-18T05:28:41.646Z,-6.05
2022-12-18T05:31:08.278Z,-6.03
2022-12-18T05:33:35.721Z,-5.97
2022-12-18T05:36:04.720Z,-5.94
2022-12-18T05:38:33.483Z,-5.82
2022-12-18T05:41:00.253Z,-5.85
2022-12-18T05:43:28.768Z,-5.76
2022-12-18T05:45:55.794Z,-6.09
2022-12-18T05:48:23.146Z,-5.92
2022-12-18T05:50:51.575Z,-6.07
2022-12-18T05:53:21.319Z,-5.90
2022-12-18T05:55:48.893Z,-5.91
2022-12-18T05:58:16.483Z,-5.75
2022-12-18T06:00:47.901Z,-5.85
2022-12-18T06:03:15.071Z,-5.60
2022-12-18T06:05:45.244Z,-5.67
2022-12-18T06:08:14.966Z,-5.95
2022-12-18T06:10:41.803Z,-5.82
2022-12-18T06:13:08.972Z,-5.70
2022-12-18T06:15:38.273Z,-5.86
2022-12-18T06:18:05.157Z,-5.80
2022-12-18T06:20:33.661Z,-5.94
2022-12-18T06:23:00.951Z,-5.74
2022-12-18T06:25:28.036Z,-5.79
2022-12-18T06:27:54.762Z,-5.77
2022-12-18T06:30:21.426Z,-5.65
2022-12-18T06:32:54.603Z,-6.02
2022-12-18T06:35:23.316Z,-5.69
2022-12-18T06:37:49.862Z,-5.75
2022-12-18T06:40:17.693Z,-5.67
2022-12-18T06:42:44.749Z,-5.60
2022-12-18T06:45:12.488Z,-5.60
2022-12-18T06:47:39.078Z,-5.59
2022-12-18T06:50:06.538Z,-5.59
2022-12-18T06:52:34.505Z,-5.57
2022-12-18T06:55:01.666Z,-5.81
2022-12-18T06:57:28.502Z,-5.75
2022-12-18T06:59:55.053Z,-5.59
2022-12-18T07:02:21.756Z,-5.81
2022-12-18T07:04:48.505Z,-5.60
2022-12-18T07:07:15.068Z,-5.54
2022-12-18T07:09:43.183Z,-5.74
2022-12-18T07:12:09.728Z,-5.56
2022-12-18T07:14:36.296Z,-5.60
2022-12-18T07:17:03.293Z,-5.52
2022-12-18T07:19:30.783Z,-5.64
2022-12-18T07:21:58.015Z,-5.61
2022-12-18T07:24:24.555Z,-5.19
2022-12-18T07:26:51.104Z,-5.61
2022-12-18T07:29:18.024Z,-5.56
2022-12-18T07:31:44.829Z,-5.61
2022-12-18T07:34:15.605Z,-5.48
2022-12-18T07:36:42.548Z,-5.34
2022-12-18T07:39:09.459Z,-5.42
2022-12-18T07:41:36.094Z,-5.61
2022-12-18T07:44:13.543Z,-5.61
2022-12-18T07:46:40.111Z,-5.79
2022-12-18T07:49:06.856Z,-5.43
2022-12-18T07:51:33.394Z,-5.27
2022-12-18T07:54:00.067Z,-5.25
2022-12-18T07:56:28.576Z,-5.21
2022-12-18T07:58:56.748Z,-5.37
2022-12-18T08:01:23.472Z,-5.12
2022-12-18T08:03:50.220Z,-5.39
2022-12-18T08:06:19.109Z,-5.35
2022-12-18T08:08:45.643Z,-5.42
2022-12-18T08:11:12.184Z,-5.38
2022-12-18T08:13:39.224Z,-5.34
2022-12-18T08:16:08.661Z,-5.17
2022-12-18T08:18:37.959Z,-5.28
2022-12-18T08:21:14.804Z,-5.09
2022-12-18T08:23:43.414Z,-4.93
2022-12-18T08:26:13.070Z,-4.69
2022-12-18T08:28:40.016Z,-4.94
2022-12-18T08:31:07.389Z,-4.99
2022-12-18T08:33:49.032Z,-5.00
2022-12-18T08:36:20.071Z,-5.03
2022-12-18T08:38:47.225Z,-4.89
2022-12-18T08:41:16.137Z,-5.09
2022-12-18T08:44:01.673Z,-4.81
2022-12-18T08:46:35.279Z,-4.54
2022-12-18T08:49:01.995Z,-4.81
2022-12-18T08:51:29.472Z,-4.58
2022-12-18T08:53:56.132Z,-4.46
2022-12-18T08:56:23.064Z,-4.44
2022-12-18T08:58:53.160Z,-4.58
2022-12-18T09:01:20.219Z,-4.71
2022-12-18T09:03:46.853Z,-4.97
2022-12-18T09:06:18.431Z,-4.69
2022-12-18T09:08:45.828Z,-4.63
2022-12-18T09:11:21.992Z,-4.51
2022-12-18T09:13:49.053Z,-4.72
2022-12-18T09:16:15.743Z,-4.53
2022-12-18T09:18:42.719Z,-4.68
2022-12-18T09:21:21.400Z,-4.36
2022-12-18T09:23:52.268Z,-4.54
2022-12-18T09:26:18.929Z,-4.43
2022-12-18T09:28:45.488Z,-4.14
2022-12-18T09:31:13.532Z,-4.25
2022-12-18T09:33:40.126Z,-5.06
2022-12-18T09:36:08.852Z,-4.83
2022-12-18T09:38:36.864Z,-4.48
2022-12-18T09:41:45.179Z,-4.56
2022-12-18T09:44:21.236Z,-4.38
2022-12-18T09:46:54.547Z,-4.36
2022-12-18T09:49:26.046Z,-3.94
2022-12-18T09:52:03.313Z,-4.09
2022-12-18T09:54:44.477Z,-4.24
2022-12-18T09:57:23.740Z,-4.38
2022-12-18T10:00:19.506Z,-3.96
2022-12-18T10:02:46.911Z,-3.75
2022-12-18T10:05:28.989Z,-4.07
2022-12-18T10:08:26.282Z,-3.87
2022-12-18T10:11:04.338Z,-3.70
2022-12-18T10:13:46.067Z,-4.18
2022-12-18T10:16:33.860Z,-4.34
2022-12-18T10:19:30.180Z,-3.96
2022-12-18T10:22:05.007Z,-4.04
2022-12-18T10:25:04.993Z,-4.17
2022-12-18T10:27:31.969Z,-4.06
2022-12-18T10:30:02.188Z,-3.80
2022-12-18T10:32:31.600Z,-3.96
2022-12-18T10:35:00.877Z,-4.14
2022-12-18T10:37:30.106Z,-4.37
2022-12-18T10:40:18.422Z,-3.82
2022-12-18T10:43:03.722Z,-3.75
2022-12-18T10:45:30.592Z,-3.93
2022-12-18T10:47:57.425Z,-4.09
2022-12-18T10:51:01.454Z,-3.78
2022-12-18T10:53:23.731Z,-3.85
2022-12-18T10:55:52.811Z,-3.82
2022-12-18T10:58:37.056Z,-3.60
2022-12-18T11:01:09.548Z,-3.43
2022-12-18T11:03:38.914Z,-3.47
2022-12-18T11:06:15.670Z,-3.43
2022-12-18T11:08:43.496Z,-3.28
2022-12-18T11:11:32.038Z,-3.11
2022-12-18T11:14:06.667Z,-3.00
2022-12-18T11:32:45.999Z,-4.12
2022-12-18T11:35:26.052Z,-3.63
2022-12-18T11:38:00.300Z,-3.31
2022-12-18T11:40:41.835Z,-3.28
2022-12-18T11:43:16.869Z,-3.55
2022-12-18T11:45:54.074Z,-3.21
2022-12-18T11:48:28.217Z,-3.17
2022-12-18T11:51:00.451Z,-3.37
2022-12-18T11:53:27.989Z,-3.24
2022-12-18T11:55:54.449Z,-3.32
2022-12-18T11:58:37.718Z,-3.07
2022-12-18T12:01:17.454Z,-3.00
2022-12-18T12:04:01.882Z,-3.13
2022-12-18T12:06:46.320Z,-3.25
2022-12-18T12:09:42.949Z,-3.27
2022-12-18T12:12:15.619Z,-3.42
2022-12-18T12:15:02.111Z,-3.19
2022-12-18T12:18:11.308Z,-3.23
2022-12-18T12:20:58.065Z,-3.06
2022-12-18T12:23:39.432Z,-2.97
2022-12-18T12:26:17.268Z,-2.95
2022-12-18T12:28:52.552Z,-2.96
2022-12-18T12:31:37.189Z,-2.80
2022-12-18T12:34:18.817Z,-2.95
2022-12-18T12:36:54.616Z,-2.73
2022-12-18T12:39:28.138Z,-2.80
2022-12-18T12:42:14.020Z,-3.40
2022-12-18T12:44:56.258Z,-3.03
2022-12-18T12:47:32.266Z,-2.93
2022-12-18T12:50:03.581Z,-3.01
2022-12-18T12:52:39.347Z,-3.40
2022-12-18T12:55:17.245Z,-3.67
2022-12-18T12:57:59.257Z,-3.62
2022-12-18T13:00:29.026Z,-3.40
2022-12-18T13:03:16.523Z,-3.49
2022-12-18T13:05:57.999Z,-3.56
2022-12-18T13:08:35.303Z,-3.19
2022-12-18T13:11:21.137Z,-3.04
2022-12-18T13:13:52.039Z,-3.14
2022-12-18T13:16:21.709Z,-2.97
2022-12-18T13:18:53.232Z,-3.18
2022-12-18T13:21:25.993Z,-3.58
2022-12-18T13:23:53.680Z,-3.52
2022-12-18T13:26:28.001Z,-3.13
2022-12-18T13:28:57.189Z,-3.33
2022-12-18T13:31:42.278Z,-3.71
2022-12-18T13:37:42.177Z,-3.23
2022-12-18T13:40:41.856Z,-3.61
2022-12-18T13:43:20.543Z,-3.55
2022-12-18T13:46:05.219Z,-3.47
2022-12-18T13:48:39.023Z,-3.77
2022-12-18T13:51:11.802Z,-3.62
2022-12-18T13:53:50.808Z,-3.66
2022-12-18T13:56:18.963Z,-4.12
2022-12-18T13:58:45.874Z,-3.70
2022-12-18T14:01:25.363Z,-3.63
2022-12-18T14:03:52.300Z,-3.73
2022-12-18T14:06:18.850Z,-3.84
2022-12-18T14:08:47.627Z,-3.76
2022-12-18T14:11:23.234Z,-3.45
2022-12-18T14:13:50.308Z,-3.48
2022-12-18T14:16:18.621Z,-3.65
2022-12-18T14:18:48.939Z,-3.74
2022-12-18T14:21:36.051Z,-3.90
2022-12-18T14:24:19.451Z,-3.76
2022-12-18T14:26:48.345Z,-4.04
2022-12-18T14:29:24.821Z,-3.77
2022-12-18T14:32:18.758Z,-4.00
2022-12-18T14:34:54.976Z,-4.09
2022-12-18T14:37:24.489Z,-4.47
2022-12-18T14:39:55.364Z,-4.25
2022-12-18T14:42:22.014Z,-4.28
2022-12-18T14:45:12.909Z,-4.33
2022-12-18T14:47:35.302Z,-4.25
2022-12-18T14:50:01.983Z,-4.26
2022-12-18T14:52:32.099Z,-4.32
2022-12-18T14:54:58.803Z,-4.31
2022-12-18T14:57:30.318Z,-4.12
2022-12-18T15:00:06.530Z,-4.17
2022-12-18T15:02:37.296Z,-4.08
2022-12-18T15:05:21.559Z,-4.24
2022-12-18T15:07:54.561Z,-4.13
2022-12-18T15:10:27.120Z,-4.19
2022-12-18T15:12:56.441Z,-4.20
2022-12-18T15:15:53.668Z,-4.16
2022-12-18T15:18:24.390Z,-4.35
2022-12-18T15:20:50.884Z,-4.26
2022-12-18T15:23:19.246Z,-4.28
2022-12-18T15:25:47.737Z,-4.24
2022-12-18T15:28:24.966Z,-4.44
2022-12-18T15:31:03.435Z,-4.46
2022-12-18T15:33:39.159Z,-4.45
2022-12-18T15:36:10.336Z,-4.65
2022-12-18T15:38:37.192Z,-4.69
2022-12-18T15:41:04.026Z,-4.58
2022-12-18T15:43:37.938Z,-4.69
2022-12-18T15:46:06.135Z,-4.61
2022-12-18T15:48:35.188Z,-4.44
2022-12-18T15:51:03.138Z,-4.55
2022-12-18T15:53:34.054Z,-4.72
2022-12-18T15:56:18.985Z,-4.72
2022-12-18T15:58:45.499Z,-4.78
2022-12-18T16:01:12.746Z,-4.72
2022-12-18T16:03:39.769Z,-4.68
2022-12-18T16:06:06.976Z,-4.74
2022-12-18T16:08:33.642Z,-4.72
2022-12-18T16:11:00.880Z,-4.66
2022-12-18T16:13:27.713Z,-4.63
2022-12-18T16:15:54.376Z,-4.87
2022-12-18T16:18:21.041Z,-4.55
2022-12-18T16:20:47.620Z,-4.77
2022-12-18T16:23:14.227Z,-4.73
2022-12-18T16:25:40.791Z,-4.70
2022-12-18T16:28:07.385Z,-4.61
2022-12-18T16:30:38.215Z,-4.63
2022-12-18T16:33:07.226Z,-4.48
2022-12-18T16:35:34.840Z,-4.56
2022-12-18T16:38:01.505Z,-4.71
2022-12-18T16:40:28.141Z,-4.55
2022-12-18T16:42:54.685Z,-4.51
2022-12-18T16:45:21.207Z,-4.65
2022-12-18T16:47:47.845Z,-4.91
2022-12-18T16:50:14.829Z,-4.70
2022-12-18T16:52:41.752Z,-4.73
2022-12-18T16:55:09.176Z,-4.77
2022-12-18T16:57:35.894Z,-4.65
2022-12-18T17:00:05.632Z,-4.88
2022-12-18T17:02:33.729Z,-4.88
2022-12-18T17:05:00.871Z,-4.71
2022-12-18T17:07:28.407Z,-4.68
2022-12-18T17:09:55.515Z,-4.86
2022-12-18T17:12:22.415Z,-4.88
2022-12-18T17:14:49.250Z,-4.96
2022-12-18T17:17:23.927Z,-5.11
2022-12-18T17:19:52.169Z,-5.04
2022-12-18T17:22:19.355Z,-4.94
2022-12-18T17:24:47.031Z,-5.00
2022-12-18T17:27:14.034Z,-5.11
2022-12-18T17:29:46.782Z,-5.05
2022-12-18T17:32:14.743Z,-4.86
2022-12-18T17:34:41.455Z,-5.12
2022-12-18T17:37:08.608Z,-4.92
2022-12-18T17:39:35.692Z,-4.87
2022-12-18T17:42:02.207Z,-4.86
2022-12-18T17:44:28.748Z,-4.76
2022-12-18T17:46:55.527Z,-4.71
2022-12-18T17:49:22.448Z,-4.79
2022-12-18T17:51:49.121Z,-4.78
2022-12-18T17:54:16.360Z,-4.91
2022-12-18T17:56:43.357Z,-4.76
2022-12-18T17:59:10.741Z,-4.82
2022-12-18T18:01:42.600Z,-5.12
2022-12-18T18:04:10.971Z,-4.81
2022-12-18T18:06:39.057Z,-5.04
2022-12-18T18:09:15.154Z,-4.93
2022-12-18T18:12:05.266Z,-4.85
2022-12-18T18:14:33.042Z,-4.99
2022-12-18T18:17:03.632Z,-4.93
2022-12-18T18:19:33.107Z,-5.12
2022-12-18T18:21:59.777Z,-4.95
2022-12-18T18:24:27.195Z,-4.99
2022-12-18T18:26:55.585Z,-5.16
2022-12-18T18:29:26.076Z,-5.02
2022-12-18T18:31:53.777Z,-5.13
2022-12-18T18:34:22.711Z,-5.19
2022-12-18T18:36:49.360Z,-5.28
2022-12-18T18:39:16.019Z,-5.37
2022-12-18T18:41:47.743Z,-5.35
2022-12-18T18:44:16.024Z,-5.19
2022-12-18T18:46:42.823Z,-5.27
2022-12-18T18:49:09.601Z,-5.36
2022-12-18T18:51:36.213Z,-5.28
2022-12-18T18:54:02.931Z,-5.41
2022-12-18T18:59:17.042Z,-5.53
2022-12-18T19:01:44.205Z,-5.55
2022-12-18T19:04:10.924Z,-5.32
2022-12-18T19:06:37.514Z,-5.23
2022-12-18T19:09:06.655Z,-5.31
2022-12-18T19:11:52.419Z,-5.15
2022-12-18T19:14:19.624Z,-5.27
2022-12-18T19:16:46.284Z,-5.25
2022-12-18T19:19:14.365Z,-5.18
2022-12-18T19:21:41.117Z,-5.30
2022-12-18T19:24:09.560Z,-5.24
2022-12-18T19:26:37.572Z,-5.25
2022-12-18T19:29:06.948Z,-5.31
2022-12-18T19:31:36.446Z,-5.46
2022-12-18T19:34:07.128Z,-5.53
2022-12-18T19:36:36.814Z,-5.44
2022-12-18T19:39:10.862Z,-5.53
2022-12-18T19:41:37.877Z,-5.65
2022-12-18T19:44:08.321Z,-5.42
2022-12-18T19:46:35.779Z,-5.61
2022-12-18T19:49:02.888Z,-5.31
2022-12-18T19:51:31.747Z,-5.17
2022-12-18T19:54:01.583Z,-5.33
2022-12-18T19:56:31.655Z,-5.19
2022-12-18T19:58:58.601Z,-5.31
2022-12-18T20:01:26.319Z,-5.36
2022-12-18T20:03:55.190Z,-5.45
2022-12-18T20:06:46.061Z,-5.48
2022-12-18T20:09:12.713Z,-5.25
2022-12-18T20:11:41.952Z,-5.37
2022-12-18T20:14:10.744Z,-5.41
2022-12-18T20:16:38.729Z,-5.38
2022-12-18T20:19:06.310Z,-5.37
2022-12-18T20:21:33.386Z,-5.55
2022-12-18T20:24:01.339Z,-5.64
2022-12-18T20:26:28.042Z,-5.50
2022-12-18T20:28:55.635Z,-5.36
2022-12-18T20:31:22.563Z,-5.59
2022-12-18T20:34:14.173Z,-5.40
2022-12-18T20:36:41.655Z,-5.46
2022-12-18T20:39:09.042Z,-5.44
2022-12-18T20:41:38.973Z,-5.31
2022-12-18T20:44:11.003Z,-5.28
2022-12-18T20:46:50.238Z,-5.19
2022-12-18T20:49:16.832Z,-5.45
2022-12-18T20:51:43.412Z,-5.31
2022-12-18T20:54:11.956Z,-5.24
2022-12-18T20:56:38.678Z,-5.16
2022-12-18T20:59:05.238Z,-5.22
2022-12-18T21:01:31.929Z,-5.26
2022-12-18T21:03:59.253Z,-5.23
2022-12-18T21:06:26.442Z,-5.42
2022-12-18T21:08:52.979Z,-5.44
2022-12-18T21:11:38.171Z,-5.42
2022-12-18T21:14:10.051Z,-5.26
2022-12-18T21:16:37.179Z,-5.18
2022-12-18T21:19:03.756Z,-5.39
2022-12-18T21:21:30.309Z,-5.21
2022-12-18T21:24:02.201Z,-5.30
2022-12-18T21:26:28.902Z,-5.31
2022-12-18T21:29:00.709Z,-5.15
2022-12-18T21:31:29.662Z,-5.16
2022-12-18T21:34:02.217Z,-5.24
2022-12-18T21:36:30.774Z,-5.20
2022-12-18T21:38:58.538Z,-5.11
2022-12-18T21:41:44.859Z,-5.32
2022-12-18T21:44:14.095Z,-5.26
2022-12-18T21:46:44.085Z,-5.22
2022-12-18T21:49:14.463Z,-5.29
2022-12-18T21:51:41.420Z,-5.12
2022-12-18T21:54:08.013Z,-5.23
2022-12-18T21:56:54.121Z,-5.10
2022-12-18T21:59:29.566Z,-5.16
2022-12-18T22:01:59.205Z,-5.14
2022-12-18T22:04:26.413Z,-5.28
2022-12-18T22:06:54.082Z,-5.18
2022-12-18T22:09:23.505Z,-5.24
2022-12-18T22:11:51.360Z,-5.46
2022-12-18T22:14:20.279Z,-5.43
2022-12-18T22:16:47.840Z,-5.33
2022-12-18T22:19:15.139Z,-5.26
2022-12-18T22:21:47.299Z,-5.49
2022-12-18T22:24:19.680Z,-5.87
2022-12-18T22:26:47.035Z,-5.78
2022-12-18T22:29:40.017Z,-5.42
2022-12-18T22:32:10.400Z,-5.35
2022-12-18T22:34:39.407Z,-5.37
2022-12-18T22:37:06.126Z,-5.26
2022-12-18T22:39:32.972Z,-5.22
2022-12-18T22:42:00.229Z,-5.35
2022-12-18T22:44:27.313Z,-5.28
2022-12-18T22:47:05.646Z,-5.23
2022-12-18T22:49:34.912Z,-5.50
2022-12-18T22:52:04.354Z,-5.36
2022-12-18T22:54:30.926Z,-5.13
2022-12-18T22:56:57.653Z,-5.49
2022-12-18T22:59:24.385Z,-5.68
2022-12-18T23:17:42.371Z,-6.30
2022-12-18T23:20:09.333Z,-6.32
2022-12-18T23:22:35.866Z,-6.41
2022-12-18T23:25:02.416Z,-6.36
2022-12-18T23:27:28.954Z,-6.04
2022-12-18T23:29:55.519Z,-6.21
2022-12-18T23:32:24.945Z,-6.17
2022-12-18T23:34:51.477Z,-6.28
2022-12-18T23:37:35.316Z,-6.39
2022-12-18T23:40:04.922Z,-6.29
2022-12-18T23:42:31.438Z,-6.25
2022-12-18T23:44:58.047Z,-6.09
2022-12-18T23:47:26.241Z,-6.02
2022-12-18T23:49:52.781Z,-5.96
2022-12-18T23:52:19.310Z,-5.76
2022-12-18T23:54:46.035Z,-5.97
2022-12-18T23:57:12.761Z,-6.28
2022-12-18T23:59:39.549Z,-6.13
